sensor_id;sensor_type;location;lat;lon;timestamp;P1;durP1;ratioP1;P2;durP2;ratioP2
75408;SDS011;63979;55.644;37.734;2023-04-24T00:01:33;28.00;;;13.30;;
75408;SDS011;63979;55.644;37.734;2023-04-24T00:06:34;36.25;;;13.05;;
75408;SDS011;63979;55.644;37.734;2023-04-24T00:11:37;32.78;;;10.90;;
75408;SDS011;63979;55.644;37.734;2023-04-24T00:16:38;26.75;;;12.10;;
75408;SDS011;63979;55.644;37.734;2023-04-24T00:21:40;22.13;;;10.77;;
75408;SDS011;63979;55.644;37.734;2023-04-24T00:26:42;29.48;;;11.80;;
75408;SDS011;63979;55.644;37.734;2023-04-24T00:31:43;31.08;;;11.20;;
75408;SDS011;63979;55.644;37.734;2023-04-24T00:36:44;31.25;;;11.13;;
75408;SDS011;63979;55.644;37.734;2023-04-24T00:41:45;36.60;;;10.85;;
75408;SDS011;63979;55.644;37.734;2023-04-24T00:46:47;28.75;;;10.27;;
75408;SDS011;63979;55.644;37.734;2023-04-24T00:51:52;37.28;;;12.48;;
75408;SDS011;63979;55.644;37.734;2023-04-24T00:56:54;23.75;;;10.77;;
75408;SDS011;63979;55.644;37.734;2023-04-24T01:01:55;25.50;;;10.93;;
75408;SDS011;63979;55.644;37.734;2023-04-24T01:06:57;21.83;;;10.07;;
75408;SDS011;63979;55.644;37.734;2023-04-24T01:11:58;39.20;;;11.85;;
75408;SDS011;63979;55.644;37.734;2023-04-24T01:17:01;28.65;;;11.13;;
75408;SDS011;63979;55.644;37.734;2023-04-24T01:22:03;25.75;;;10.95;;
75408;SDS011;63979;55.644;37.734;2023-04-24T01:27:09;20.50;;;10.65;;
75408;SDS011;63979;55.644;37.734;2023-04-24T01:32:11;35.42;;;11.23;;
75408;SDS011;63979;55.644;37.734;2023-04-24T01:37:12;28.63;;;11.02;;
75408;SDS011;63979;55.644;37.734;2023-04-24T01:42:14;22.60;;;10.80;;
75408;SDS011;63979;55.644;37.734;2023-04-24T01:47:15;33.55;;;12.02;;
75408;SDS011;63979;55.644;37.734;2023-04-24T01:52:16;24.33;;;12.82;;
75408;SDS011;63979;55.644;37.734;2023-04-24T01:57:19;28.88;;;11.40;;
75408;SDS011;63979;55.644;37.734;2023-04-24T02:02:20;33.67;;;11.65;;
75408;SDS011;63979;55.644;37.734;2023-04-24T02:07:22;25.50;;;11.07;;
75408;SDS011;63979;55.644;37.734;2023-04-24T02:12:23;27.13;;;11.23;;
75408;SDS011;63979;55.644;37.734;2023-04-24T02:17:24;31.73;;;13.20;;
75408;SDS011;63979;55.644;37.734;2023-04-24T02:22:25;29.60;;;12.38;;
75408;SDS011;63979;55.644;37.734;2023-04-24T02:27:26;30.23;;;11.82;;
75408;SDS011;63979;55.644;37.734;2023-04-24T02:32:27;23.25;;;11.32;;
75408;SDS011;63979;55.644;37.734;2023-04-24T02:37:29;26.55;;;11.43;;
75408;SDS011;63979;55.644;37.734;2023-04-24T02:42:30;25.75;;;11.25;;
75408;SDS011;63979;55.644;37.734;2023-04-24T02:47:31;28.42;;;12.38;;
75408;SDS011;63979;55.644;37.734;2023-04-24T02:52:32;28.77;;;11.40;;
75408;SDS011;63979;55.644;37.734;2023-04-24T02:57:33;31.17;;;12.13;;
75408;SDS011;63979;55.644;37.734;2023-04-24T03:02:34;28.95;;;11.25;;
75408;SDS011;63979;55.644;37.734;2023-04-24T03:07:35;29.00;;;11.05;;
75408;SDS011;63979;55.644;37.734;2023-04-24T03:12:37;27.58;;;11.60;;
75408;SDS011;63979;55.644;37.734;2023-04-24T03:17:38;29.58;;;11.35;;
75408;SDS011;63979;55.644;37.734;2023-04-24T03:22:39;25.85;;;10.95;;
75408;SDS011;63979;55.644;37.734;2023-04-24T03:27:40;21.45;;;11.73;;
75408;SDS011;63979;55.644;37.734;2023-04-24T03:32:42;23.35;;;11.65;;
75408;SDS011;63979;55.644;37.734;2023-04-24T03:37:44;33.47;;;11.52;;
75408;SDS011;63979;55.644;37.734;2023-04-24T03:42:45;25.98;;;14.57;;
75408;SDS011;63979;55.644;37.734;2023-04-24T03:52:50;21.65;;;11.73;;
75408;SDS011;63979;55.644;37.734;2023-04-24T03:57:52;22.05;;;11.25;;
75408;SDS011;63979;55.644;37.734;2023-04-24T04:02:53;20.25;;;10.93;;
75408;SDS011;63979;55.644;37.734;2023-04-24T04:07:54;24.05;;;12.15;;
75408;SDS011;63979;55.644;37.734;2023-04-24T04:12:56;22.00;;;11.35;;
75408;SDS011;63979;55.644;37.734;2023-04-24T04:17:57;22.98;;;11.50;;
75408;SDS011;63979;55.644;37.734;2023-04-24T04:22:58;25.17;;;11.98;;
75408;SDS011;63979;55.644;37.734;2023-04-24T04:27:59;22.65;;;11.35;;
75408;SDS011;63979;55.644;37.734;2023-04-24T04:33:00;18.52;;;11.85;;
75408;SDS011;63979;55.644;37.734;2023-04-24T04:38:01;19.65;;;11.98;;
75408;SDS011;63979;55.644;37.734;2023-04-24T04:43:02;22.60;;;10.38;;
75408;SDS011;63979;55.644;37.734;2023-04-24T04:48:04;16.52;;;10.20;;
75408;SDS011;63979;55.644;37.734;2023-04-24T04:53:07;16.48;;;9.98;;
75408;SDS011;63979;55.644;37.734;2023-04-24T04:58:08;14.10;;;9.50;;
75408;SDS011;63979;55.644;37.734;2023-04-24T05:03:09;16.13;;;10.20;;
75408;SDS011;63979;55.644;37.734;2023-04-24T05:08:10;13.35;;;10.30;;
75408;SDS011;63979;55.644;37.734;2023-04-24T05:13:11;13.85;;;9.43;;
75408;SDS011;63979;55.644;37.734;2023-04-24T05:18:12;16.13;;;8.95;;
75408;SDS011;63979;55.644;37.734;2023-04-24T05:23:13;12.70;;;8.95;;
75408;SDS011;63979;55.644;37.734;2023-04-24T05:28:14;11.05;;;8.93;;
75408;SDS011;63979;55.644;37.734;2023-04-24T05:33:15;12.93;;;9.32;;
75408;SDS011;63979;55.644;37.734;2023-04-24T05:38:16;17.45;;;9.73;;
75408;SDS011;63979;55.644;37.734;2023-04-24T05:43:19;14.00;;;9.13;;
75408;SDS011;63979;55.644;37.734;2023-04-24T05:48:20;11.63;;;9.65;;
75408;SDS011;63979;55.644;37.734;2023-04-24T05:53:22;14.90;;;9.77;;
75408;SDS011;63979;55.644;37.734;2023-04-24T05:58:23;16.25;;;9.52;;
75408;SDS011;63979;55.644;37.734;2023-04-24T06:03:24;17.17;;;9.32;;
75408;SDS011;63979;55.644;37.734;2023-04-24T06:08:25;15.63;;;10.10;;
75408;SDS011;63979;55.644;37.734;2023-04-24T06:13:26;16.90;;;10.43;;
75408;SDS011;63979;55.644;37.734;2023-04-24T06:18:27;12.70;;;9.05;;
75408;SDS011;63979;55.644;37.734;2023-04-24T06:23:28;13.15;;;9.05;;
75408;SDS011;63979;55.644;37.734;2023-04-24T06:28:29;14.35;;;9.30;;
75408;SDS011;63979;55.644;37.734;2023-04-24T06:33:30;13.05;;;9.45;;
75408;SDS011;63979;55.644;37.734;2023-04-24T06:38:31;13.35;;;8.15;;
75408;SDS011;63979;55.644;37.734;2023-04-24T06:43:32;9.30;;;8.30;;
75408;SDS011;63979;55.644;37.734;2023-04-24T06:48:33;12.32;;;7.97;;
75408;SDS011;63979;55.644;37.734;2023-04-24T06:53:34;13.60;;;7.85;;
75408;SDS011;63979;55.644;37.734;2023-04-24T06:58:35;9.80;;;7.28;;
75408;SDS011;63979;55.644;37.734;2023-04-24T07:03:36;10.32;;;6.80;;
75408;SDS011;63979;55.644;37.734;2023-04-24T07:08:37;11.85;;;6.93;;
75408;SDS011;63979;55.644;37.734;2023-04-24T07:13:37;13.23;;;6.70;;
75408;SDS011;63979;55.644;37.734;2023-04-24T07:18:42;8.23;;;5.65;;
75408;SDS011;63979;55.644;37.734;2023-04-24T07:23:43;9.50;;;5.68;;
75408;SDS011;63979;55.644;37.734;2023-04-24T07:28:44;5.75;;;4.90;;
75408;SDS011;63979;55.644;37.734;2023-04-24T07:33:45;6.57;;;4.20;;
75408;SDS011;63979;55.644;37.734;2023-04-24T07:38:46;4.53;;;4.07;;
75408;SDS011;63979;55.644;37.734;2023-04-24T07:43:48;6.38;;;4.60;;
75408;SDS011;63979;55.644;37.734;2023-04-24T07:48:49;5.45;;;4.20;;
75408;SDS011;63979;55.644;37.734;2023-04-24T07:53:50;6.00;;;4.40;;
75408;SDS011;63979;55.644;37.734;2023-04-24T07:58:51;5.53;;;4.47;;
75408;SDS011;63979;55.644;37.734;2023-04-24T08:03:52;7.13;;;5.00;;
75408;SDS011;63979;55.644;37.734;2023-04-24T08:08:52;5.55;;;4.35;;
75408;SDS011;63979;55.644;37.734;2023-04-24T08:13:53;5.32;;;4.75;;
75408;SDS011;63979;55.644;37.734;2023-04-24T08:18:55;6.15;;;4.43;;
75408;SDS011;63979;55.644;37.734;2023-04-24T08:23:56;7.15;;;4.25;;
75408;SDS011;63979;55.644;37.734;2023-04-24T08:28:56;5.35;;;4.68;;
75408;SDS011;63979;55.644;37.734;2023-04-24T08:33:57;6.93;;;4.90;;
75408;SDS011;63979;55.644;37.734;2023-04-24T08:38:59;7.30;;;4.50;;
75408;SDS011;63979;55.644;37.734;2023-04-24T08:44:00;6.25;;;4.68;;
75408;SDS011;63979;55.644;37.734;2023-04-24T08:49:03;6.05;;;4.15;;
75408;SDS011;63979;55.644;37.734;2023-04-24T08:54:05;7.43;;;4.47;;
75408;SDS011;63979;55.644;37.734;2023-04-24T08:59:07;5.30;;;4.15;;
75408;SDS011;63979;55.644;37.734;2023-04-24T09:04:09;5.35;;;4.07;;
75408;SDS011;63979;55.644;37.734;2023-04-24T09:09:12;7.35;;;4.25;;
75408;SDS011;63979;55.644;37.734;2023-04-24T09:14:14;5.75;;;4.50;;
75408;SDS011;63979;55.644;37.734;2023-04-24T09:19:15;4.90;;;4.40;;
75408;SDS011;63979;55.644;37.734;2023-04-24T09:24:19;5.80;;;4.68;;
75408;SDS011;63979;55.644;37.734;2023-04-24T09:29:25;7.53;;;4.80;;
75408;SDS011;63979;55.644;37.734;2023-04-24T09:34:26;5.15;;;4.65;;
75408;SDS011;63979;55.644;37.734;2023-04-24T09:39:27;4.88;;;4.22;;
75408;SDS011;63979;55.644;37.734;2023-04-24T09:44:28;5.32;;;4.45;;
75408;SDS011;63979;55.644;37.734;2023-04-24T09:49:30;4.93;;;3.97;;
75408;SDS011;63979;55.644;37.734;2023-04-24T09:54:33;4.65;;;4.25;;
75408;SDS011;63979;55.644;37.734;2023-04-24T09:59:34;6.18;;;4.63;;
75408;SDS011;63979;55.644;37.734;2023-04-24T10:04:35;6.18;;;4.95;;
75408;SDS011;63979;55.644;37.734;2023-04-24T10:09:36;5.95;;;4.60;;
75408;SDS011;63979;55.644;37.734;2023-04-24T10:14:37;4.75;;;4.30;;
75408;SDS011;63979;55.644;37.734;2023-04-24T10:19:39;8.80;;;4.60;;
75408;SDS011;63979;55.644;37.734;2023-04-24T10:24:41;6.70;;;4.82;;
75408;SDS011;63979;55.644;37.734;2023-04-24T10:29:44;6.03;;;4.60;;
75408;SDS011;63979;55.644;37.734;2023-04-24T10:34:48;6.68;;;4.38;;
75408;SDS011;63979;55.644;37.734;2023-04-24T10:39:49;6.95;;;4.32;;
75408;SDS011;63979;55.644;37.734;2023-04-24T10:44:51;5.43;;;4.57;;
75408;SDS011;63979;55.644;37.734;2023-04-24T10:49:52;4.38;;;3.97;;
75408;SDS011;63979;55.644;37.734;2023-04-24T10:54:54;5.28;;;4.50;;
75408;SDS011;63979;55.644;37.734;2023-04-24T11:00:13;4.53;;;4.13;;
75408;SDS011;63979;55.644;37.734;2023-04-24T11:05:20;5.38;;;4.15;;
75408;SDS011;63979;55.644;37.734;2023-04-24T11:10:25;4.50;;;4.10;;
75408;SDS011;63979;55.644;37.734;2023-04-24T11:15:27;7.03;;;5.28;;
75408;SDS011;63979;55.644;37.734;2023-04-24T11:20:30;5.65;;;3.38;;
75408;SDS011;63979;55.644;37.734;2023-04-24T11:25:31;5.57;;;3.80;;
75408;SDS011;63979;55.644;37.734;2023-04-24T11:30:33;6.10;;;3.92;;
75408;SDS011;63979;55.644;37.734;2023-04-24T11:35:39;7.53;;;4.00;;
75408;SDS011;63979;55.644;37.734;2023-04-24T11:40:41;4.32;;;3.92;;
75408;SDS011;63979;55.644;37.734;2023-04-24T11:45:47;3.70;;;3.40;;
75408;SDS011;63979;55.644;37.734;2023-04-24T11:50:50;5.43;;;3.53;;
75408;SDS011;63979;55.644;37.734;2023-04-24T11:55:51;6.38;;;4.03;;
75408;SDS011;63979;55.644;37.734;2023-04-24T12:00:58;5.38;;;4.13;;
75408;SDS011;63979;55.644;37.734;2023-04-24T12:06:06;5.50;;;3.72;;
75408;SDS011;63979;55.644;37.734;2023-04-24T12:11:08;6.10;;;3.70;;
75408;SDS011;63979;55.644;37.734;2023-04-24T12:16:09;5.03;;;3.40;;
75408;SDS011;63979;55.644;37.734;2023-04-24T12:21:17;4.97;;;3.28;;
75408;SDS011;63979;55.644;37.734;2023-04-24T12:26:19;6.10;;;3.25;;
75408;SDS011;63979;55.644;37.734;2023-04-24T12:31:22;5.10;;;3.22;;
75408;SDS011;63979;55.644;37.734;2023-04-24T12:36:24;4.20;;;3.20;;
75408;SDS011;63979;55.644;37.734;2023-04-24T12:41:27;5.32;;;3.67;;
75408;SDS011;63979;55.644;37.734;2023-04-24T12:46:31;4.25;;;3.50;;
75408;SDS011;63979;55.644;37.734;2023-04-24T12:51:32;4.88;;;2.83;;
75408;SDS011;63979;55.644;37.734;2023-04-24T12:56:33;4.45;;;3.13;;
75408;SDS011;63979;55.644;37.734;2023-04-24T13:01:34;5.10;;;3.10;;
75408;SDS011;63979;55.644;37.734;2023-04-24T13:06:35;4.20;;;3.60;;
75408;SDS011;63979;55.644;37.734;2023-04-24T13:11:36;4.82;;;3.47;;
75408;SDS011;63979;55.644;37.734;2023-04-24T13:16:38;4.38;;;2.83;;
75408;SDS011;63979;55.644;37.734;2023-04-24T13:21:39;4.10;;;3.00;;
75408;SDS011;63979;55.644;37.734;2023-04-24T13:26:40;3.58;;;3.05;;
75408;SDS011;63979;55.644;37.734;2023-04-24T13:31:41;5.15;;;3.53;;
75408;SDS011;63979;55.644;37.734;2023-04-24T13:36:42;4.72;;;3.00;;
75408;SDS011;63979;55.644;37.734;2023-04-24T13:41:44;5.82;;;2.83;;
75408;SDS011;63979;55.644;37.734;2023-04-24T13:46:48;4.28;;;3.13;;
75408;SDS011;63979;55.644;37.734;2023-04-24T13:51:51;4.30;;;3.58;;
75408;SDS011;63979;55.644;37.734;2023-04-24T13:56:55;4.03;;;3.60;;
75408;SDS011;63979;55.644;37.734;2023-04-24T14:02:01;4.35;;;3.40;;
75408;SDS011;63979;55.644;37.734;2023-04-24T14:07:02;4.00;;;3.38;;
75408;SDS011;63979;55.644;37.734;2023-04-24T14:12:03;3.85;;;2.65;;
75408;SDS011;63979;55.644;37.734;2023-04-24T14:17:04;4.22;;;2.40;;
75408;SDS011;63979;55.644;37.734;2023-04-24T14:22:06;9.20;;;3.22;;
75408;SDS011;63979;55.644;37.734;2023-04-24T14:27:09;7.38;;;3.47;;
75408;SDS011;63979;55.644;37.734;2023-04-24T14:32:10;4.32;;;3.40;;
75408;SDS011;63979;55.644;37.734;2023-04-24T14:37:11;4.65;;;3.53;;
75408;SDS011;63979;55.644;37.734;2023-04-24T14:42:13;3.53;;;3.05;;
75408;SDS011;63979;55.644;37.734;2023-04-24T14:47:14;5.13;;;2.88;;
75408;SDS011;63979;55.644;37.734;2023-04-24T14:52:17;3.90;;;2.97;;
75408;SDS011;63979;55.644;37.734;2023-04-24T14:57:19;8.18;;;2.85;;
75408;SDS011;63979;55.644;37.734;2023-04-24T15:02:20;3.80;;;2.33;;
75408;SDS011;63979;55.644;37.734;2023-04-24T15:07:21;6.78;;;3.25;;
75408;SDS011;63979;55.644;37.734;2023-04-24T15:12:22;6.07;;;2.50;;
75408;SDS011;63979;55.644;37.734;2023-04-24T15:17:25;4.05;;;2.83;;
75408;SDS011;63979;55.644;37.734;2023-04-24T15:22:26;4.38;;;2.80;;
75408;SDS011;63979;55.644;37.734;2023-04-24T15:32:39;4.30;;;3.15;;
75408;SDS011;63979;55.644;37.734;2023-04-24T15:42:41;6.28;;;3.30;;
75408;SDS011;63979;55.644;37.734;2023-04-24T15:47:44;6.10;;;3.40;;
75408;SDS011;63979;55.644;37.734;2023-04-24T15:52:48;4.65;;;3.42;;
75408;SDS011;63979;55.644;37.734;2023-04-24T16:02:50;7.25;;;3.80;;
75408;SDS011;63979;55.644;37.734;2023-04-24T16:07:54;6.75;;;3.50;;
75408;SDS011;63979;55.644;37.734;2023-04-24T16:12:55;8.90;;;3.47;;
75408;SDS011;63979;55.644;37.734;2023-04-24T16:17:57;6.68;;;4.13;;
75408;SDS011;63979;55.644;37.734;2023-04-24T16:22:58;6.22;;;3.80;;
75408;SDS011;63979;55.644;37.734;2023-04-24T16:28:00;8.90;;;3.88;;
75408;SDS011;63979;55.644;37.734;2023-04-24T16:33:00;7.57;;;4.30;;
75408;SDS011;63979;55.644;37.734;2023-04-24T16:38:06;9.90;;;4.35;;
75408;SDS011;63979;55.644;37.734;2023-04-24T16:43:08;7.45;;;4.22;;
75408;SDS011;63979;55.644;37.734;2023-04-24T16:48:09;9.52;;;4.65;;
75408;SDS011;63979;55.644;37.734;2023-04-24T16:53:10;11.32;;;4.32;;
75408;SDS011;63979;55.644;37.734;2023-04-24T16:58:11;9.07;;;3.78;;
75408;SDS011;63979;55.644;37.734;2023-04-24T17:03:12;5.22;;;4.07;;
75408;SDS011;63979;55.644;37.734;2023-04-24T17:08:14;9.73;;;4.22;;
75408;SDS011;63979;55.644;37.734;2023-04-24T17:13:15;8.43;;;4.03;;
75408;SDS011;63979;55.644;37.734;2023-04-24T17:18:16;8.82;;;4.07;;
75408;SDS011;63979;55.644;37.734;2023-04-24T17:23:17;7.65;;;4.53;;
75408;SDS011;63979;55.644;37.734;2023-04-24T17:28:27;7.18;;;4.38;;
75408;SDS011;63979;55.644;37.734;2023-04-24T17:33:30;6.32;;;4.15;;
75408;SDS011;63979;55.644;37.734;2023-04-24T17:43:32;8.18;;;4.78;;
75408;SDS011;63979;55.644;37.734;2023-04-24T17:48:33;9.38;;;4.35;;
75408;SDS011;63979;55.644;37.734;2023-04-24T17:58:36;11.43;;;4.65;;
75408;SDS011;63979;55.644;37.734;2023-04-24T18:03:37;11.55;;;5.68;;
75408;SDS011;63979;55.644;37.734;2023-04-24T18:13:38;6.70;;;4.75;;
75408;SDS011;63979;55.644;37.734;2023-04-24T18:18:42;10.73;;;4.72;;
75408;SDS011;63979;55.644;37.734;2023-04-24T18:23:43;8.52;;;4.75;;
75408;SDS011;63979;55.644;37.734;2023-04-24T18:28:45;18.08;;;5.18;;
75408;SDS011;63979;55.644;37.734;2023-04-24T18:33:46;7.30;;;4.13;;
75408;SDS011;63979;55.644;37.734;2023-04-24T18:38:48;6.97;;;4.40;;
75408;SDS011;63979;55.644;37.734;2023-04-24T18:43:49;10.00;;;5.13;;
75408;SDS011;63979;55.644;37.734;2023-04-24T18:48:51;9.45;;;5.57;;
75408;SDS011;63979;55.644;37.734;2023-04-24T18:53:52;7.00;;;4.60;;
75408;SDS011;63979;55.644;37.734;2023-04-24T18:58:53;12.93;;;6.00;;
75408;SDS011;63979;55.644;37.734;2023-04-24T19:03:54;7.55;;;4.93;;
75408;SDS011;63979;55.644;37.734;2023-04-24T19:08:58;7.63;;;5.03;;
75408;SDS011;63979;55.644;37.734;2023-04-24T19:13:59;10.35;;;5.30;;
75408;SDS011;63979;55.644;37.734;2023-04-24T19:19:03;10.55;;;4.93;;
75408;SDS011;63979;55.644;37.734;2023-04-24T19:24:04;10.35;;;4.90;;
75408;SDS011;63979;55.644;37.734;2023-04-24T19:29:06;7.72;;;4.07;;
75408;SDS011;63979;55.644;37.734;2023-04-24T19:34:07;7.88;;;4.20;;
75408;SDS011;63979;55.644;37.734;2023-04-24T19:39:08;10.00;;;5.07;;
75408;SDS011;63979;55.644;37.734;2023-04-24T19:44:09;11.45;;;6.28;;
75408;SDS011;63979;55.644;37.734;2023-04-24T19:49:10;8.00;;;5.75;;
75408;SDS011;63979;55.644;37.734;2023-04-24T19:54:12;7.88;;;5.20;;
75408;SDS011;63979;55.644;37.734;2023-04-24T19:59:13;10.48;;;5.68;;
75408;SDS011;63979;55.644;37.734;2023-04-24T20:04:14;8.45;;;5.65;;
75408;SDS011;63979;55.644;37.734;2023-04-24T20:09:15;9.48;;;5.50;;
75408;SDS011;63979;55.644;37.734;2023-04-24T20:14:16;20.80;;;9.75;;
75408;SDS011;63979;55.644;37.734;2023-04-24T20:19:17;21.25;;;6.72;;
75408;SDS011;63979;55.644;37.734;2023-04-24T20:24:18;11.60;;;6.60;;
75408;SDS011;63979;55.644;37.734;2023-04-24T20:29:19;9.82;;;5.57;;
75408;SDS011;63979;55.644;37.734;2023-04-24T20:34:20;9.52;;;5.82;;
75408;SDS011;63979;55.644;37.734;2023-04-24T20:39:21;10.45;;;5.85;;
75408;SDS011;63979;55.644;37.734;2023-04-24T20:44:22;12.95;;;6.88;;
75408;SDS011;63979;55.644;37.734;2023-04-24T20:49:23;13.60;;;6.28;;
75408;SDS011;63979;55.644;37.734;2023-04-24T20:54:24;18.50;;;7.00;;
75408;SDS011;63979;55.644;37.734;2023-04-24T20:59:26;20.95;;;8.23;;
75408;SDS011;63979;55.644;37.734;2023-04-24T21:04:27;11.20;;;6.55;;
75408;SDS011;63979;55.644;37.734;2023-04-24T21:09:32;23.10;;;8.32;;
75408;SDS011;63979;55.644;37.734;2023-04-24T21:14:34;11.95;;;5.72;;
75408;SDS011;63979;55.644;37.734;2023-04-24T21:19:35;14.50;;;6.57;;
75408;SDS011;63979;55.644;37.734;2023-04-24T21:24:36;14.07;;;6.38;;
75408;SDS011;63979;55.644;37.734;2023-04-24T21:29:37;9.93;;;4.97;;
75408;SDS011;63979;55.644;37.734;2023-04-24T21:34:37;9.90;;;5.53;;
75408;SDS011;63979;55.644;37.734;2023-04-24T21:39:39;9.15;;;6.38;;
75408;SDS011;63979;55.644;37.734;2023-04-24T21:44:39;7.35;;;4.57;;
75408;SDS011;63979;55.644;37.734;2023-04-24T21:49:41;6.05;;;4.85;;
75408;SDS011;63979;55.644;37.734;2023-04-24T21:54:42;8.32;;;4.63;;
75408;SDS011;63979;55.644;37.734;2023-04-24T21:59:43;14.07;;;5.40;;
75408;SDS011;63979;55.644;37.734;2023-04-24T22:04:45;7.07;;;4.85;;
75408;SDS011;63979;55.644;37.734;2023-04-24T22:09:46;11.30;;;4.90;;
75408;SDS011;63979;55.644;37.734;2023-04-24T22:14:47;7.57;;;4.53;;
75408;SDS011;63979;55.644;37.734;2023-04-24T22:19:48;9.13;;;4.97;;
75408;SDS011;63979;55.644;37.734;2023-04-24T22:24:49;5.78;;;4.25;;
75408;SDS011;63979;55.644;37.734;2023-04-24T22:29:50;10.45;;;4.68;;
75408;SDS011;63979;55.644;37.734;2023-04-24T22:34:51;9.02;;;4.90;;
75408;SDS011;63979;55.644;37.734;2023-04-24T22:39:52;9.18;;;5.78;;
75408;SDS011;63979;55.644;37.734;2023-04-24T22:44:53;7.80;;;4.43;;
75408;SDS011;63979;55.644;37.734;2023-04-24T22:49:54;8.73;;;4.90;;
75408;SDS011;63979;55.644;37.734;2023-04-24T22:54:56;9.27;;;5.30;;
75408;SDS011;63979;55.644;37.734;2023-04-24T22:59:57;8.10;;;4.93;;
75408;SDS011;63979;55.644;37.734;2023-04-24T23:04:58;7.97;;;4.90;;
75408;SDS011;63979;55.644;37.734;2023-04-24T23:09:59;5.35;;;4.68;;
75408;SDS011;63979;55.644;37.734;2023-04-24T23:15:00;7.35;;;4.65;;
75408;SDS011;63979;55.644;37.734;2023-04-24T23:20:05;7.43;;;4.30;;
75408;SDS011;63979;55.644;37.734;2023-04-24T23:25:07;11.68;;;5.72;;
75408;SDS011;63979;55.644;37.734;2023-04-24T23:30:09;14.45;;;7.90;;
75408;SDS011;63979;55.644;37.734;2023-04-24T23:35:10;13.48;;;8.15;;
75408;SDS011;63979;55.644;37.734;2023-04-24T23:40:11;11.68;;;6.55;;
75408;SDS011;63979;55.644;37.734;2023-04-24T23:45:12;9.50;;;6.60;;
75408;SDS011;63979;55.644;37.734;2023-04-24T23:50:13;14.85;;;7.38;;
75408;SDS011;63979;55.644;37.734;2023-04-24T23:55:14;12.63;;;8.02;;
